Time;durP1;ratioP1;P1;durP2;ratioP2;P2;SDS_P1;SDS_P2;PMS_P1;PMS_P2;Temp;Humidity;BMP_temperature;BMP_pressure;BME280_temperature;BME280_humidity;BME280_pressure;Samples;Min_cycle;Max_cycle;Signal;HPM_P1;HPM_P2
2022/10/19 00:01:16;;;;;;;0.40;0.30;;;;;;;11.37;53.17;95926.88;5135366;27;20444;-54
2022/10/19 00:03:47;;;;;;;0.40;0.20;;;;;;;11.28;52.11;95917.78;5134567;27;20430;-54
2022/10/19 00:06:18;;;;;;;0.40;0.20;;;;;;;11.24;52.92;95915.91;5135221;27;20437;-54
2022/10/19 00:08:48;;;;;;;0.30;0.20;;;;;;;11.14;53.20;95915.88;5135235;27;20899;-54
2022/10/19 00:11:16;;;;;;;0.50;0.50;;;;;;;11.13;53.61;95908.97;5135109;27;20473;-54
2022/10/19 00:13:45;;;;;;;0.40;0.20;;;;;;;11.33;53.00;95909.06;5134274;27;20441;-53
2022/10/19 00:16:16;;;;;;;0.40;0.30;;;;;;;11.39;52.81;95903.50;5134177;27;20431;-54
2022/10/19 00:18:45;;;;;;;0.40;0.30;;;;;;;11.23;53.51;95893.13;5135053;27;20433;-54
2022/10/19 00:21:15;;;;;;;0.60;0.30;;;;;;;11.17;53.32;95900.25;5134957;27;20930;-54
2022/10/19 00:23:44;;;;;;;0.40;0.20;;;;;;;10.96;53.24;95882.63;5134671;27;20437;-54
2022/10/19 00:26:14;;;;;;;0.40;0.20;;;;;;;10.91;52.82;95855.25;5134843;27;20948;-54
2022/10/19 00:28:43;;;;;;;0.40;0.20;;;;;;;10.99;52.25;95860.88;5134863;27;20434;-54
2022/10/19 00:31:13;;;;;;;0.40;0.30;;;;;;;11.01;53.21;95884.50;5134731;27;20465;-54
2022/10/19 00:33:45;;;;;;;0.70;0.30;;;;;;;11.13;52.83;95882.44;5133623;27;20436;-54
2022/10/19 00:36:18;;;;;;;0.40;0.30;;;;;;;11.11;53.17;95877.38;5135004;27;20422;-54
2022/10/19 00:38:53;;;;;;;0.40;0.37;;;;;;;11.09;52.93;95876.03;5134553;27;20418;-54
2022/10/19 00:41:25;;;;;;;0.40;0.27;;;;;;;10.91;53.78;95874.63;5134581;27;20428;-54
2022/10/19 00:43:57;;;;;;;0.40;0.20;;;;;;;10.93;53.59;95869.88;5134844;27;20464;-54
2022/10/19 00:46:28;;;;;;;0.40;0.20;;;;;;;10.70;55.78;95872.94;5134350;27;20422;-54
2022/10/19 00:48:59;;;;;;;0.40;0.20;;;;;;;10.05;57.23;95871.34;5134649;27;20433;-54
2022/10/19 00:51:31;;;;;;;0.40;0.20;;;;;;;9.63;58.89;95870.44;5134396;27;20466;-54
2022/10/19 00:54:02;;;;;;;0.40;0.30;;;;;;;9.05;60.65;95875.59;5134369;27;20433;-54
2022/10/19 00:56:33;;;;;;;0.67;0.40;;;;;;;9.51;59.26;95859.97;5134347;27;20493;-55
2022/10/19 00:59:04;;;;;;;0.37;0.23;;;;;;;9.83;58.56;95862.69;5134225;27;20433;-54
2022/10/19 01:01:33;;;;;;;0.70;0.40;;;;;;;9.85;57.82;95860.59;5134133;27;20436;-54
2022/10/19 01:04:03;;;;;;;0.40;0.20;;;;;;;9.99;57.72;95855.69;5134198;27;20890;-54
2022/10/19 01:06:33;;;;;;;0.50;0.50;;;;;;;9.23;60.06;95862.88;5134052;27;20427;-54
2022/10/19 01:09:02;;;;;;;0.40;0.20;;;;;;;8.95;61.54;95853.25;5134383;27;20809;-54
2022/10/19 01:11:45;;;;;;;0.50;0.30;;;;;;;8.82;62.58;95848.34;5133434;27;20463;-54
2022/10/19 01:14:28;;;;;;;0.40;0.30;;;;;;;9.18;61.43;95844.28;5133847;27;20450;-54
2022/10/19 01:17:10;;;;;;;0.40;0.30;;;;;;;9.38;60.53;95849.81;5134199;27;20429;-54
2022/10/19 01:20:20;;;;;;;0.40;0.20;;;;;;;9.37;59.95;95842.09;5133793;27;20433;-54
2022/10/19 01:23:05;;;;;;;0.40;0.30;;;;;;;9.59;59.15;95848.16;5133736;27;20902;-54
2022/10/19 01:25:49;;;;;;;0.40;0.37;;;;;;;9.40;59.71;95853.00;5133568;27;20473;-54
2022/10/19 01:28:32;;;;;;;0.40;0.30;;;;;;;9.22;59.91;95845.38;5133659;27;20906;-54
2022/10/19 01:31:13;;;;;;;0.50;0.30;;;;;;;9.77;58.56;95845.16;5133526;27;20524;-54
2022/10/19 01:33:49;;;;;;;0.40;0.30;;;;;;;9.89;58.16;95837.06;5133181;27;20426;-54
2022/10/19 01:36:24;;;;;;;0.30;0.20;;;;;;;9.92;57.04;95820.66;5133123;27;20478;-54
2022/10/19 01:39:00;;;;;;;0.40;0.20;;;;;;;9.93;57.10;95830.19;5133775;27;20459;-54
2022/10/19 01:41:35;;;;;;;0.43;0.30;;;;;;;9.90;56.77;95822.75;5133368;27;20442;-54
2022/10/19 01:44:11;;;;;;;1.23;0.47;;;;;;;9.92;56.31;95821.44;5133252;27;20462;-54
2022/10/19 01:46:44;;;;;;;0.50;0.30;;;;;;;9.94;56.61;95806.09;5133049;27;20440;-55
2022/10/19 01:49:19;;;;;;;0.63;0.63;;;;;;;10.08;55.82;95812.59;5133542;27;20426;-54
2022/10/19 01:51:54;;;;;;;0.73;0.73;;;;;;;9.59;57.07;95813.75;5132681;27;20469;-54
2022/10/19 01:54:25;;;;;;;0.40;0.20;;;;;;;9.71;56.97;95803.00;5133286;27;20910;-54
2022/10/19 01:56:56;;;;;;;0.40;0.20;;;;;;;10.00;56.06;95801.66;5133121;27;20433;-54
2022/10/19 01:59:25;;;;;;;0.40;0.20;;;;;;;9.81;56.44;95809.19;5133194;27;20422;-54
2022/10/19 02:01:57;;;;;;;0.60;0.50;;;;;;;9.76;56.87;95805.72;5133475;27;20452;-54
2022/10/19 02:04:26;;;;;;;0.50;0.40;;;;;;;9.81;56.12;95801.25;5133090;27;20419;-54
2022/10/19 02:06:55;;;;;;;0.50;0.30;;;;;;;9.39;56.51;95742.13;5132408;27;20425;-54
2022/10/19 02:09:24;;;;;;;0.40;0.20;;;;;;;9.48;57.99;95802.28;5133110;27;20422;-54
2022/10/19 02:11:56;;;;;;;0.40;0.20;;;;;;;9.19;58.61;95795.63;5132709;27;20553;-54
2022/10/19 02:14:29;;;;;;;0.50;0.40;;;;;;;8.54;59.91;95732.25;5132688;27;21087;-54
2022/10/19 02:17:03;;;;;;;0.40;0.20;;;;;;;8.90;59.65;95802.97;5132762;27;20433;-54
2022/10/19 02:19:31;;;;;;;0.40;0.30;;;;;;;8.52;61.72;95797.75;5133032;27;20425;-54
2022/10/19 02:21:59;;;;;;;0.40;0.20;;;;;;;8.40;61.96;95778.53;5132708;27;20429;-54
2022/10/19 02:24:28;;;;;;;0.40;0.30;;;;;;;8.44;62.25;95795.50;5132695;27;20477;-55
2022/10/19 02:26:56;;;;;;;0.30;0.20;;;;;;;8.68;61.19;95799.53;5132972;27;20766;-54
2022/10/19 02:29:25;;;;;;;0.40;0.40;;;;;;;8.71;61.03;95793.75;5132499;27;20445;-54
2022/10/19 02:31:53;;;;;;;0.40;0.30;;;;;;;8.43;62.07;95791.25;5132245;27;20426;-54
2022/10/19 02:34:23;;;;;;;0.30;0.20;;;;;;;8.37;62.35;95792.25;5132836;27;20438;-54
2022/10/19 02:36:52;;;;;;;0.40;0.40;;;;;;;8.52;61.43;95792.47;5132818;27;20421;-54
2022/10/19 02:39:20;;;;;;;0.40;0.20;;;;;;;8.68;60.79;95778.38;5132793;27;20440;-54
2022/10/19 02:41:54;;;;;;;1.23;1.23;;;;;;;8.37;62.04;95772.97;5132899;27;20425;-54
2022/10/19 02:44:26;;;;;;;0.40;0.30;;;;;;;8.49;61.46;95792.94;5132615;27;20451;-54
2022/10/19 02:46:58;;;;;;;0.87;0.87;;;;;;;8.66;60.83;95785.75;5132640;27;20426;-54
2022/10/19 02:49:29;;;;;;;0.30;0.20;;;;;;;8.60;61.19;95788.59;5132487;27;20437;-54
2022/10/19 02:52:00;;;;;;;0.40;0.30;;;;;;;8.51;61.31;95790.84;5132598;27;20415;-54
2022/10/19 02:54:29;;;;;;;0.40;0.30;;;;;;;8.61;60.67;95788.34;5132656;27;20756;-54
2022/10/19 02:56:57;;;;;;;0.87;0.87;;;;;;;8.90;60.29;95788.97;5134761;27;20425;-54
2022/10/19 02:59:26;;;;;;;0.30;0.20;;;;;;;8.65;59.34;95722.59;5136576;27;20444;-55
2022/10/19 03:01:54;;;;;;;0.60;0.60;;;;;;;8.91;59.67;95782.63;5136929;27;20768;-54
2022/10/19 03:04:22;;;;;;;0.70;0.70;;;;;;;8.78;60.13;95782.97;5136594;27;20423;-54
2022/10/19 03:06:52;;;;;;;0.30;0.20;;;;;;;8.81;59.46;95791.22;5136870;27;20428;-54
2022/10/19 03:09:20;;;;;;;0.40;0.20;;;;;;;8.79;59.65;95792.53;5136375;27;20425;-54
2022/10/19 03:11:49;;;;;;;0.30;0.20;;;;;;;8.36;60.72;95788.00;5135944;27;21120;-54
2022/10/19 03:14:17;;;;;;;0.40;0.30;;;;;;;8.66;59.92;95792.88;5136251;27;20493;-54
2022/10/19 03:16:45;;;;;;;0.33;0.20;;;;;;;8.62;59.90;95787.31;5136690;27;20453;-54
2022/10/19 03:19:13;;;;;;;0.40;0.20;;;;;;;8.74;59.37;95785.34;5136435;27;20423;-54
2022/10/19 03:21:42;;;;;;;0.40;0.30;;;;;;;8.80;58.86;95786.97;5136159;27;20432;-54
2022/10/19 03:24:12;;;;;;;0.67;0.50;;;;;;;8.82;58.92;95781.47;5136316;27;20484;-54
2022/10/19 03:26:40;;;;;;;0.30;0.20;;;;;;;8.84;58.91;95779.38;5135958;27;20438;-53
2022/10/19 03:29:08;;;;;;;0.70;0.30;;;;;;;8.79;58.95;95777.47;5136128;27;20434;-53
2022/10/19 03:31:36;;;;;;;0.30;0.20;;;;;;;8.75;59.15;95776.34;5136017;27;20441;-53
2022/10/19 03:34:05;;;;;;;0.30;0.20;;;;;;;8.86;59.23;95771.97;5135640;27;20489;-54
2022/10/19 03:36:35;;;;;;;1.53;0.30;;;;;;;8.79;59.26;95777.47;5135207;27;20430;-53
2022/10/19 03:39:07;;;;;;;0.40;0.27;;;;;;;8.78;59.37;95769.75;5135311;27;20436;-54
2022/10/19 03:41:38;;;;;;;0.40;0.20;;;;;;;8.68;58.03;95724.72;5135853;27;20433;-54
2022/10/19 03:44:08;;;;;;;0.40;0.33;;;;;;;8.79;58.73;95772.19;5136102;27;20427;-54
2022/10/19 03:46:37;;;;;;;0.90;0.40;;;;;;;8.81;58.57;95769.28;5136148;27;20431;-54
2022/10/19 03:49:06;;;;;;;0.40;0.30;;;;;;;8.68;59.08;95770.44;5135736;27;20437;-54
2022/10/19 03:51:34;;;;;;;1.27;1.27;;;;;;;8.43;59.66;95766.69;5135025;27;20429;-54
2022/10/19 03:54:05;;;;;;;0.50;0.50;;;;;;;8.76;59.04;95775.31;5135800;27;20469;-54
2022/10/19 03:56:35;;;;;;;0.30;0.20;;;;;;;8.87;58.49;95768.31;5135903;27;20438;-53
2022/10/19 03:59:06;;;;;;;1.03;0.30;;;;;;;8.89;58.20;95740.56;5135358;27;21070;-53
2022/10/19 04:01:37;;;;;;;0.30;0.20;;;;;;;8.96;57.77;95761.53;5135142;27;20910;-53
2022/10/19 04:04:07;;;;;;;0.40;0.40;;;;;;;8.88;58.19;95756.66;5135479;27;20422;-53
2022/10/19 04:06:39;;;;;;;0.30;0.30;;;;;;;8.77;58.84;95758.41;5135393;27;20432;-53
2022/10/19 04:09:09;;;;;;;0.50;0.40;;;;;;;8.68;58.95;95764.38;5134144;27;20418;-54
2022/10/19 04:11:38;;;;;;;3.67;0.50;;;;;;;8.60;59.11;95762.94;5135509;27;20436;-54
2022/10/19 04:14:08;;;;;;;0.50;0.30;;;;;;;8.74;58.71;95764.19;5135411;27;20595;-54
2022/10/19 04:16:42;;;;;;;0.60;0.60;;;;;;;8.89;57.82;95755.63;5135523;27;20438;-54
2022/10/19 04:19:14;;;;;;;0.30;0.20;;;;;;;8.60;58.82;95776.16;5135196;27;20428;-54
2022/10/19 04:21:44;;;;;;;0.40;0.30;;;;;;;8.29;59.52;95774.19;5135081;27;20422;-54
2022/10/19 04:24:13;;;;;;;0.73;0.40;;;;;;;7.94;61.78;95773.63;5135159;27;20584;-54
2022/10/19 04:26:44;;;;;;;0.40;0.30;;;;;;;7.83;62.33;95770.03;5135233;27;20434;-54
2022/10/19 04:29:14;;;;;;;0.90;0.90;;;;;;;7.69;62.80;95761.63;5134808;27;20433;-54
2022/10/19 04:31:42;;;;;;;0.40;0.30;;;;;;;7.77;62.93;95767.56;5134498;27;20438;-53
2022/10/19 04:34:11;;;;;;;0.40;0.40;;;;;;;7.62;63.87;95761.00;5134664;27;21008;-54
2022/10/19 04:36:39;;;;;;;2.10;1.00;;;;;;;7.60;64.21;95767.56;5134459;27;20422;-54
2022/10/19 04:39:08;;;;;;;0.50;0.30;;;;;;;7.52;64.84;95754.75;5134627;27;20437;-54
2022/10/19 04:41:38;;;;;;;0.60;0.57;;;;;;;7.33;64.91;95751.56;5134517;27;20426;-54
2022/10/19 04:44:06;;;;;;;0.80;0.80;;;;;;;7.36;65.17;95763.47;5134657;27;20508;-53
2022/10/19 04:46:37;;;;;;;0.40;0.30;;;;;;;7.66;64.55;95758.69;5134462;27;20432;-54
2022/10/19 04:49:05;;;;;;;0.40;0.40;;;;;;;7.28;65.75;95735.66;5134586;27;20430;-54
2022/10/19 04:51:34;;;;;;;0.80;0.80;;;;;;;7.29;66.76;95757.53;5134401;27;20980;-53
2022/10/19 04:54:03;;;;;;;0.57;0.53;;;;;;;7.31;66.44;95752.84;5134138;27;20568;-54
2022/10/19 04:56:32;;;;;;;0.90;0.60;;;;;;;7.36;66.25;95750.28;5134568;27;20425;-53
2022/10/19 04:59:01;;;;;;;0.60;0.60;;;;;;;7.45;64.78;95752.28;5134836;27;20824;-53
2022/10/19 05:01:30;;;;;;;0.60;0.60;;;;;;;7.31;64.32;95737.00;5134884;27;20444;-54
2022/10/19 05:04:02;;;;;;;0.40;0.30;;;;;;;7.34;64.17;95753.13;5134459;27;20446;-54
2022/10/19 05:06:31;;;;;;;0.73;0.40;;;;;;;5.79;65.37;95559.59;5134231;27;20937;-53
2022/10/19 05:09:00;;;;;;;0.40;0.23;;;;;;;7.14;65.07;95750.16;5134156;27;20442;-53
2022/10/19 05:11:28;;;;;;;0.97;0.97;;;;;;;7.33;64.74;95748.94;5134226;27;20430;-53
2022/10/19 05:13:57;;;;;;;0.50;0.40;;;;;;;7.26;64.65;95719.25;5134334;27;20471;-53
2022/10/19 05:16:25;;;;;;;0.40;0.30;;;;;;;7.48;64.71;95748.38;5134059;27;20438;-53
2022/10/19 05:18:57;;;;;;;0.73;0.73;;;;;;;7.50;66.06;95736.53;5133736;27;20434;-53
2022/10/19 05:21:28;;;;;;;0.40;0.30;;;;;;;7.53;65.67;95738.72;5134151;27;20831;-53
2022/10/19 05:23:57;;;;;;;0.87;0.87;;;;;;;7.33;67.15;95750.75;5133916;27;20430;-53
2022/10/19 05:26:28;;;;;;;2.60;2.50;;;;;;;6.93;69.01;95745.56;5134026;27;20423;-53
2022/10/19 05:29:00;;;;;;;0.70;0.70;;;;;;;6.97;70.20;95751.97;5134005;27;20440;-53
2022/10/19 05:31:30;;;;;;;0.80;0.60;;;;;;;6.91;71.77;95764.22;5133996;27;20440;-53
2022/10/19 05:33:59;;;;;;;2.57;1.43;;;;;;;7.05;71.06;95751.59;5133883;27;20465;-53
2022/10/19 05:36:33;;;;;;;0.73;0.73;;;;;;;7.25;70.66;95759.84;5134122;27;20433;-53
2022/10/19 05:39:04;;;;;;;4.77;0.73;;;;;;;7.43;69.33;95762.28;5133542;27;20421;-53
2022/10/19 05:41:32;;;;;;;1.13;0.73;;;;;;;8.21;66.76;95753.44;5133468;27;20418;-53
2022/10/19 05:44:02;;;;;;;1.07;1.07;;;;;;;8.97;63.85;95720.03;5133435;27;20434;-53
2022/10/19 05:46:31;;;;;;;0.40;0.30;;;;;;;9.71;61.50;95750.06;5133267;27;20434;-52
2022/10/19 05:49:00;;;;;;;0.63;0.53;;;;;;;9.64;60.52;95744.22;5133747;27;20426;-52
2022/10/19 05:51:30;;;;;;;0.40;0.40;;;;;;;9.89;59.58;95753.13;5133470;27;20438;-52
2022/10/19 05:53:58;;;;;;;0.40;0.33;;;;;;;9.83;59.43;95751.50;5133691;27;20477;-53
2022/10/19 05:56:28;;;;;;;0.70;0.60;;;;;;;10.53;57.62;95739.75;5133422;27;20445;-53
2022/10/19 05:58:58;;;;;;;0.40;0.30;;;;;;;10.75;57.62;95743.06;5133394;27;20447;-53
2022/10/19 06:01:28;;;;;;;0.70;0.70;;;;;;;11.02;56.06;95735.72;5133321;27;20430;-53
2022/10/19 06:03:58;;;;;;;5.20;0.37;;;;;;;11.51;54.90;95737.94;5133060;27;20490;-53
2022/10/19 06:06:27;;;;;;;0.40;0.40;;;;;;;11.64;55.08;95734.75;5133306;27;20429;-53
2022/10/19 06:08:58;;;;;;;0.60;0.40;;;;;;;12.02;53.48;95739.53;5132944;27;20464;-54
2022/10/19 06:11:28;;;;;;;0.50;0.40;;;;;;;12.31;53.64;95734.44;5132753;27;20428;-55
2022/10/19 06:13:59;;;;;;;0.40;0.37;;;;;;;12.64;52.25;95728.50;5132660;27;20421;-55
2022/10/19 06:16:29;;;;;;;0.50;0.40;;;;;;;13.10;50.86;95739.78;5132974;27;20429;-55
2022/10/19 06:18:59;;;;;;;0.40;0.20;;;;;;;13.15;50.59;95731.75;5133020;27;20445;-53
2022/10/19 06:21:30;;;;;;;0.60;0.40;;;;;;;13.41;49.80;95727.84;5132692;27;20909;-55
2022/10/19 06:24:02;;;;;;;0.90;0.57;;;;;;;13.16;50.06;95728.00;5132777;27;20421;-55
2022/10/19 06:26:32;;;;;;;0.50;0.43;;;;;;;13.31;49.40;95719.94;5132800;27;20417;-55
2022/10/19 06:29:01;;;;;;;0.53;0.50;;;;;;;14.07;48.67;95727.31;5132729;27;20948;-56
2022/10/19 06:31:33;;;;;;;0.80;0.80;;;;;;;13.97;47.50;95723.69;5132520;27;20797;-56
2022/10/19 06:34:01;;;;;;;1.07;0.67;;;;;;;14.51;47.44;95720.78;5132821;27;20982;-56
2022/10/19 06:36:31;;;;;;;0.63;0.57;;;;;;;14.37;47.38;95719.09;5132628;27;20426;-57
2022/10/19 06:39:01;;;;;;;0.93;0.80;;;;;;;14.56;45.90;95723.41;5132695;27;20924;-58
2022/10/19 06:41:31;;;;;;;0.60;0.60;;;;;;;14.52;45.76;95717.03;5133037;27;20418;-58
2022/10/19 06:43:59;;;;;;;0.50;0.40;;;;;;;15.01;45.12;95708.72;5132592;27;20453;-59
2022/10/19 06:46:28;;;;;;;0.70;0.67;;;;;;;15.22;43.35;95720.72;5133097;27;20429;-58
2022/10/19 06:48:58;;;;;;;0.43;0.40;;;;;;;15.40;43.06;95695.09;5133065;27;20421;-57
2022/10/19 06:51:27;;;;;;;0.60;0.60;;;;;;;15.85;42.31;95712.31;5132944;27;20422;-56
2022/10/19 06:53:56;;;;;;;2.10;0.47;;;;;;;16.19;41.17;95712.00;5132923;27;20462;-56
2022/10/19 06:56:26;;;;;;;1.53;0.97;;;;;;;15.98;41.32;95650.06;5132844;27;20812;-55
2022/10/19 06:58:55;;;;;;;0.80;0.80;;;;;;;17.99;39.70;95708.47;5132553;27;20417;-55
2022/10/19 07:01:24;;;;;;;8.50;0.87;;;;;;;16.68;41.07;95708.69;5132691;27;20427;-55
2022/10/19 07:03:54;;;;;;;0.50;0.33;;;;;;;17.46;40.34;95686.94;5132755;27;20422;-55
2022/10/19 07:06:23;;;;;;;0.67;0.67;;;;;;;17.15;41.19;95706.38;5132673;27;20437;-55
2022/10/19 07:08:52;;;;;;;0.53;0.53;;;;;;;16.80;41.88;95704.44;5132775;27;20429;-55
2022/10/19 07:11:22;;;;;;;0.80;0.57;;;;;;;16.47;41.83;95628.78;5132453;27;20427;-55
2022/10/19 07:13:52;;;;;;;0.77;0.50;;;;;;;17.78;40.27;95694.81;5132627;27;20426;-55
2022/10/19 07:16:21;;;;;;;0.70;0.30;;;;;;;17.58;39.72;95701.41;5132249;27;20466;-55
2022/10/19 07:18:51;;;;;;;1.97;1.87;;;;;;;18.45;38.66;95695.47;5132116;27;20423;-55
2022/10/19 07:21:21;;;;;;;0.60;0.30;;;;;;;19.41;38.23;95687.41;5132287;27;20438;-54
2022/10/19 07:23:50;;;;;;;0.77;0.77;;;;;;;18.56;38.10;95683.41;5131813;28;20419;-54
2022/10/19 07:26:22;;;;;;;0.70;0.40;;;;;;;18.71;38.66;95692.94;5131979;27;20890;-55
2022/10/19 07:28:52;;;;;;;0.47;0.30;;;;;;;19.22;36.92;95690.38;5132526;27;20423;-54
2022/10/19 07:31:24;;;;;;;0.80;0.80;;;;;;;19.59;36.59;95679.03;5132286;27;20432;-54
2022/10/19 07:33:53;;;;;;;0.40;0.30;;;;;;;20.72;34.67;95623.81;5132200;27;20432;-53
2022/10/19 07:36:22;;;;;;;0.93;0.30;;;;;;;20.89;33.89;95682.97;5132181;27;20482;-53
2022/10/19 07:38:51;;;;;;;0.50;0.30;;;;;;;20.83;33.72;95654.63;5132176;27;20903;-53
2022/10/19 07:41:21;;;;;;;1.10;0.50;;;;;;;20.60;34.22;95678.34;5132412;27;20924;-52
2022/10/19 07:43:52;;;;;;;0.50;0.37;;;;;;;19.82;34.94;95660.81;5135491;27;20430;-52
2022/10/19 07:46:22;;;;;;;0.80;0.67;;;;;;;20.53;35.65;95669.19;5136021;27;20801;-52
2022/10/19 07:48:51;;;;;;;0.73;0.73;;;;;;;20.21;34.40;95595.97;5135795;27;20906;-52
2022/10/19 07:51:19;;;;;;;0.50;0.40;;;;;;;21.02;32.72;95646.13;5135879;27;20913;-52
2022/10/19 07:53:48;;;;;;;0.40;0.30;;;;;;;21.62;32.11;95645.69;5135659;27;20967;-51
2022/10/19 07:56:18;;;;;;;0.90;0.70;;;;;;;21.23;32.31;95645.03;5135582;27;20477;-51
2022/10/19 07:58:47;;;;;;;0.60;0.47;;;;;;;21.35;32.88;95631.63;5135832;27;20867;-51
2022/10/19 08:01:19;;;;;;;0.40;0.30;;;;;;;21.38;33.70;95619.41;5135566;27;20434;-48
2022/10/19 08:03:48;;;;;;;0.50;0.50;;;;;;;21.63;38.11;95631.09;5135907;27;20458;-48
2022/10/19 08:06:37;;;;;;;0.40;0.30;;;;;;;22.10;36.95;95624.31;5135371;27;20439;-48
2022/10/19 08:09:05;;;;;;;0.40;0.30;;;;;;;22.45;35.18;95620.06;5135860;27;20434;-48
2022/10/19 08:11:36;;;;;;;0.70;0.70;;;;;;;22.00;33.78;95611.22;5135169;27;20578;-48
2022/10/19 08:14:04;;;;;;;1.13;1.03;;;;;;;22.50;31.38;95563.13;5135658;27;20423;-48
2022/10/19 08:16:37;;;;;;;0.67;0.30;;;;;;;24.14;30.29;95601.88;5135259;27;20466;-48
2022/10/19 08:19:08;;;;;;;0.60;0.43;;;;;;;24.79;29.28;95590.38;5135186;27;20459;-48
2022/10/19 08:21:37;;;;;;;0.47;0.37;;;;;;;24.34;34.09;95598.13;5135532;27;20801;-48
2022/10/19 08:24:07;;;;;;;0.50;0.40;;;;;;;24.57;29.55;95593.66;5135123;27;20479;-49
2022/10/19 08:26:37;;;;;;;0.40;0.40;;;;;;;24.27;32.49;95584.41;5135453;27;20929;-49
2022/10/19 08:29:07;;;;;;;0.50;0.50;;;;;;;24.84;31.54;95592.81;5135056;27;20439;-48
2022/10/19 08:31:37;;;;;;;0.53;0.37;;;;;;;24.02;28.67;95522.28;5135130;27;20427;-49
2022/10/19 08:34:06;;;;;;;4.73;0.60;;;;;;;24.05;29.29;95585.78;5135283;27;20423;-49
2022/10/19 08:36:34;;;;;;;2.03;1.00;;;;;;;23.75;30.89;95576.47;5134843;27;20474;-49
2022/10/19 08:39:04;;;;;;;0.97;0.97;;;;;;;23.77;29.32;95563.38;5135331;27;20487;-49
2022/10/19 08:41:43;;;;;;;0.43;0.40;;;;;;;23.13;29.67;95563.50;5134623;27;20914;-49
2022/10/19 08:44:41;;;;;;;2.10;0.40;;;;;;;23.56;28.72;95563.59;5134903;27;20913;-49
2022/10/19 08:47:20;;;;;;;0.40;0.30;;;;;;;24.61;28.04;95537.63;5134618;27;20430;-49
2022/10/19 08:49:51;;;;;;;0.60;0.40;;;;;;;25.17;28.18;95555.16;5134627;27;20455;-50
2022/10/19 08:52:22;;;;;;;1.07;1.07;;;;;;;25.07;27.76;95555.72;5134870;27;20435;-49
2022/10/19 08:54:56;;;;;;;0.50;0.33;;;;;;;23.89;28.84;95547.84;5134013;27;20427;-50
2022/10/19 08:57:35;;;;;;;0.50;0.40;;;;;;;24.79;28.06;95552.41;5134864;27;20470;-54
2022/10/19 09:00:08;;;;;;;0.40;0.40;;;;;;;25.49;26.84;95536.03;5134049;27;20430;-50
2022/10/19 09:02:55;;;;;;;0.70;0.40;;;;;;;25.76;26.72;95535.00;5133966;27;20427;-49
2022/10/19 09:05:32;;;;;;;0.40;0.30;;;;;;;26.47;26.41;95526.94;5134636;27;20427;-50
2022/10/19 09:08:01;;;;;;;0.50;0.40;;;;;;;26.85;25.81;95525.97;5134591;27;20446;-49
2022/10/19 09:10:35;;;;;;;0.40;0.30;;;;;;;26.92;25.58;95511.66;5134130;27;20431;-50
2022/10/19 09:13:07;;;;;;;0.70;0.70;;;;;;;26.98;24.93;95512.91;5134204;27;20435;-50
2022/10/19 09:15:41;;;;;;;2.33;0.87;;;;;;;27.18;25.16;95492.56;5134427;27;20474;-50
2022/10/19 09:18:18;;;;;;;0.60;0.60;;;;;;;27.62;24.25;95484.53;5134642;27;20427;-50
2022/10/19 09:20:49;;;;;;;0.47;0.40;;;;;;;29.79;23.66;95510.94;5134118;27;20419;-50
2022/10/19 09:23:22;;;;;;;0.70;0.40;;;;;;;30.20;22.86;95500.44;5134280;27;20423;-50
2022/10/19 09:25:51;;;;;;;0.60;0.60;;;;;;;30.33;22.58;95498.09;5133749;27;20475;-50
2022/10/19 09:28:37;;;;;;;0.40;0.30;;;;;;;29.05;22.30;95496.19;5133949;27;20434;-51
2022/10/19 09:31:13;;;;;;;0.30;0.20;;;;;;;30.18;21.85;95486.41;5133560;27;20434;-51
2022/10/19 09:33:47;;;;;;;0.50;0.40;;;;;;;30.04;22.29;95481.69;5133834;27;20421;-51
2022/10/19 09:36:15;;;;;;;0.50;0.40;;;;;;;29.07;22.33;95482.97;5133949;27;20501;-51
2022/10/19 09:38:54;;;;;;;0.50;0.30;;;;;;;28.80;22.26;95476.97;5133187;27;20434;-51
2022/10/19 09:41:24;;;;;;;0.40;0.30;;;;;;;30.55;22.39;95472.31;5133720;27;20437;-51
2022/10/19 09:43:54;;;;;;;0.40;0.30;;;;;;;31.24;21.19;95464.34;5134022;27;20430;-51
2022/10/19 09:46:44;;;;;;;0.83;0.30;;;;;;;32.04;20.57;95456.84;5133895;27;20796;-51
2022/10/19 09:49:19;;;;;;;0.57;0.37;;;;;;;30.57;21.54;95457.06;5133899;27;20426;-51
2022/10/19 09:51:51;;;;;;;0.50;0.40;;;;;;;31.79;21.31;95446.03;5133493;27;20439;-51
2022/10/19 09:54:37;;;;;;;0.40;0.40;;;;;;;30.33;21.12;95452.41;5133523;27;20427;-51
2022/10/19 09:57:06;;;;;;;0.40;0.40;;;;;;;30.41;21.06;95445.00;5133413;27;20477;-51
2022/10/19 09:59:36;;;;;;;0.40;0.30;;;;;;;30.59;21.25;95424.63;5133506;27;20425;-51
2022/10/19 10:02:15;;;;;;;0.30;0.30;;;;;;;30.31;21.65;95438.31;5133630;27;20543;-51
2022/10/19 10:04:54;;;;;;;0.50;0.33;;;;;;;29.73;21.37;95446.88;5133465;27;20950;-51
2022/10/19 10:07:27;;;;;;;0.43;0.37;;;;;;;28.93;21.77;95434.53;5132854;27;20426;-51
2022/10/19 10:09:55;;;;;;;4.00;0.40;;;;;;;29.22;22.63;95446.38;5133270;27;20514;-51
2022/10/19 10:12:24;;;;;;;0.63;0.63;;;;;;;28.48;22.90;95304.97;5133173;27;20421;-51
2022/10/19 10:14:55;;;;;;;1.40;0.70;;;;;;;29.71;22.86;95421.09;5132809;27;20427;-51
2022/10/19 10:17:29;;;;;;;0.67;0.67;;;;;;;29.66;22.16;95422.28;5133063;27;20466;-51
2022/10/19 10:20:22;;;;;;;0.40;0.30;;;;;;;31.32;20.87;95411.84;5133101;27;20437;-51
2022/10/19 10:22:57;;;;;;;0.40;0.40;;;;;;;31.69;20.35;95402.25;5132985;27;20438;-51
2022/10/19 10:25:28;;;;;;;0.40;0.30;;;;;;;31.67;21.54;95399.16;5132970;27;20472;-51
2022/10/19 10:28:00;;;;;;;0.50;0.50;;;;;;;31.41;20.60;95394.97;5132807;27;20432;-51
2022/10/19 10:30:34;;;;;;;0.67;0.67;;;;;;;29.86;20.75;95390.72;5133109;27;20779;-51
2022/10/19 10:33:03;;;;;;;1.57;0.60;;;;;;;29.38;22.03;95400.38;5132460;27;20418;-51
2022/10/19 10:35:54;;;;;;;0.80;0.80;;;;;;;30.49;21.41;95398.06;5132934;27;20430;-52
2022/10/19 10:38:26;;;;;;;0.80;0.30;;;;;;;28.86;21.47;95380.72;5132241;27;20461;-52
2022/10/19 10:40:59;;;;;;;0.40;0.30;;;;;;;30.19;21.24;95270.00;5132527;27;20423;-52
2022/10/19 10:43:31;;;;;;;0.40;0.30;;;;;;;31.11;19.86;95370.91;5132956;27;20925;-51
2022/10/19 10:46:04;;;;;;;0.43;0.33;;;;;;;30.57;20.46;95383.22;5132362;27;20441;-51
2022/10/19 10:48:36;;;;;;;0.40;0.40;;;;;;;31.07;19.59;95378.34;5132584;27;20802;-51
2022/10/19 10:51:09;;;;;;;0.40;0.30;;;;;;;32.50;19.50;95379.63;5132668;27;20952;-51
2022/10/19 10:53:40;;;;;;;0.50;0.40;;;;;;;32.52;19.87;95372.56;5132550;27;20437;-51
2022/10/19 10:56:23;;;;;;;0.30;0.23;;;;;;;33.68;17.78;95358.50;5132681;27;20419;-51
2022/10/19 10:58:57;;;;;;;0.40;0.30;;;;;;;33.35;18.16;95298.94;5132815;27;20441;-51
2022/10/19 11:01:30;;;;;;;0.40;0.30;;;;;;;32.77;18.86;95355.03;5132503;27;21062;-51
2022/10/19 11:04:03;;;;;;;0.40;0.30;;;;;;;31.54;19.28;95343.25;5132384;27;20487;-51
2022/10/19 11:06:37;;;;;;;0.67;0.37;;;;;;;32.93;18.42;95350.50;5132354;27;20956;-51
2022/10/19 11:09:26;;;;;;;0.40;0.30;;;;;;;33.12;18.69;95338.13;5132736;27;20512;-51
2022/10/19 11:11:56;;;;;;;0.73;0.40;;;;;;;33.12;18.77;95338.13;5132778;27;20628;-51
2022/10/19 11:14:34;;;;;;;0.40;0.40;;;;;;;32.67;19.85;95332.00;5132786;27;20437;-52
2022/10/19 11:17:06;;;;;;;0.50;0.50;;;;;;;32.12;19.06;95320.44;5132732;27;20473;-51
2022/10/19 11:19:37;;;;;;;0.40;0.30;;;;;;;32.32;19.01;95326.91;5136409;27;20426;-51
2022/10/19 11:22:19;;;;;;;0.83;0.30;;;;;;;32.31;18.98;95315.16;5136653;27;20798;-51
2022/10/19 11:25:21;;;;;;;0.47;0.40;;;;;;;32.93;18.77;95322.28;5135973;27;20470;-50
2022/10/19 11:28:01;;;;;;;0.57;0.50;;;;;;;31.25;19.32;95313.28;5136235;27;20438;-51
2022/10/19 11:30:36;;;;;;;0.67;0.67;;;;;;;29.75;19.44;95310.69;5135920;27;20892;-51
2022/10/19 11:33:21;;;;;;;0.60;0.50;;;;;;;30.57;19.03;95300.34;5136488;27;20494;-51
2022/10/19 11:35:52;;;;;;;0.30;0.30;;;;;;;31.57;19.91;95302.13;5136350;27;20423;-51
2022/10/19 11:38:43;;;;;;;0.70;0.70;;;;;;;31.65;19.11;95302.84;5136221;27;20580;-52
2022/10/19 11:41:22;;;;;;;0.60;0.50;;;;;;;31.50;19.35;95290.47;5135962;27;20972;-52
2022/10/19 11:44:04;;;;;;;0.40;0.30;;;;;;;32.45;19.42;95295.78;5136255;27;20433;-52
2022/10/19 11:46:39;;;;;;;0.33;0.30;;;;;;;33.25;18.76;95293.19;5135801;27;20433;-52
2022/10/19 11:49:19;;;;;;;0.40;0.40;;;;;;;32.91;18.54;95292.50;5136431;27;20425;-50
2022/10/19 11:51:56;;;;;;;0.40;0.30;;;;;;;32.67;18.91;95290.84;5136101;27;20433;-51
2022/10/19 11:54:39;;;;;;;0.40;0.30;;;;;;;31.61;18.95;95280.16;5135892;27;20429;-52
2022/10/19 11:57:13;;;;;;;0.40;0.40;;;;;;;31.05;19.28;95248.50;5135687;27;20834;-50
2022/10/19 11:59:57;;;;;;;0.50;0.47;;;;;;;30.79;20.53;95277.16;5135869;27;20433;-51